createdAt,value
2017-11-01T17:05:37.951Z,69.87
2017-11-01T17:06:46.803Z,70.15
2017-11-01T17:07:55.650Z,69.96
2017-11-01T17:09:04.519Z,70.06
2017-11-01T17:10:13.355Z,69.68
2017-11-01T17:11:22.205Z,70.92
2017-11-01T17:12:31.054Z,70.82
2017-11-01T17:13:39.904Z,70.82
2017-11-01T17:14:48.808Z,70.92
2017-11-01T17:15:57.663Z,70.82
2017-11-01T17:17:06.509Z,70.15
2017-11-01T17:18:15.361Z,70.53
2017-11-01T17:19:24.278Z,70.63
2017-11-01T17:20:33.132Z,70.82
2017-11-01T17:21:41.979Z,71.2
2017-11-01T17:22:50.829Z,71.3
2017-11-01T17:23:59.679Z,69.96
2017-11-01T17:25:08.530Z,70.25
2017-11-01T17:26:17.380Z,70.86
2017-11-01T17:27:26.231Z,70.92
2017-11-01T17:28:35.082Z,70.34
2017-11-01T17:29:43.934Z,70.82
2017-11-01T17:30:53.134Z,70.72
2017-11-01T17:32:02.060Z,70.72
2017-11-01T17:33:10.921Z,71.01
2017-11-01T17:34:19.837Z,70.44
2017-11-01T17:35:28.831Z,71.11
2017-11-01T17:36:37.679Z,71.11
2017-11-01T17:37:46.529Z,70.82
2017-11-01T17:38:55.385Z,70.63
2017-11-01T17:40:04.237Z,70.72
2017-11-01T17:41:13.397Z,71.48
2017-11-01T17:42:22.249Z,71.11
2017-11-01T17:43:31.100Z,71.2
2017-11-01T17:44:39.955Z,70.72
2017-11-01T17:45:48.806Z,71.2
2017-11-01T17:46:57.756Z,71.39
2017-11-01T17:48:06.609Z,71.96
2017-11-01T17:49:15.457Z,71.87
2017-11-01T17:50:24.305Z,71.48
2017-11-01T17:51:33.220Z,71.58
2017-11-01T17:52:42.319Z,71.96
2017-11-01T17:53:51.170Z,72.25
2017-11-01T17:55:00.025Z,72.44
2017-11-01T17:56:09.217Z,72.72
2017-11-01T17:57:18.067Z,72.34
2017-11-01T17:58:27.569Z,72.82
2017-11-01T17:59:36.416Z,72.25
2017-11-01T18:00:45.335Z,72.44
2017-11-01T18:01:54.246Z,72.34
2017-11-01T18:03:03.092Z,73.01
2017-11-01T18:04:11.992Z,73.01
2017-11-01T18:05:20.840Z,72.72
2017-11-01T18:06:29.691Z,73.3
2017-11-01T18:07:38.542Z,72.63
2017-11-01T18:08:47.390Z,72.92
2017-11-01T18:09:56.340Z,72.72
2017-11-01T18:11:05.189Z,72.53
2017-11-01T18:12:14.035Z,72.72
2017-11-01T18:13:22.886Z,72.72
2017-11-01T18:14:31.804Z,72.92
2017-11-01T18:15:40.917Z,72.82
2017-11-01T18:16:49.767Z,72.44
2017-11-01T18:17:58.618Z,72.92
2017-11-01T18:19:07.466Z,72.72
2017-11-01T18:20:16.313Z,72.34
2017-11-01T18:21:25.364Z,72.72
2017-11-01T18:22:34.213Z,72.34
2017-11-01T18:23:43.061Z,72.72
2017-11-01T18:24:51.917Z,73.21
2017-11-01T18:26:00.844Z,72.82
2017-11-01T18:27:10.144Z,73.01
2017-11-01T18:28:19.052Z,72.53
2017-11-01T18:29:27.904Z,72.72
2017-11-01T18:30:36.824Z,72.44
2017-11-01T18:31:45.731Z,72.82
2017-11-01T18:32:55.025Z,72.82
2017-11-01T18:34:04.222Z,72.82
2017-11-01T18:35:13.072Z,72.82
2017-11-01T18:36:21.923Z,72.63
2017-11-01T18:37:31.189Z,72.82
2017-11-01T18:38:40.248Z,72.63
2017-11-01T18:39:49.112Z,72.53
2017-11-01T18:40:58.310Z,72.44
2017-11-01T18:42:07.288Z,72.63
2017-11-01T18:43:16.138Z,72.25
2017-11-01T18:44:25.087Z,72.44
2017-11-01T18:45:33.939Z,72.34
2017-11-01T18:46:42.784Z,71.77
2017-11-01T18:47:51.886Z,71.68
2017-11-01T18:49:00.738Z,71.77
2017-11-01T18:50:09.977Z,71.87
2017-11-01T18:51:18.823Z,71.77
2017-11-01T18:52:27.737Z,71.77
2017-11-01T18:53:36.583Z,71.58
2017-11-01T18:54:45.434Z,71.77
2017-11-01T18:55:54.382Z,72.16
2017-11-01T18:57:03.433Z,71.77
2017-11-01T18:58:12.370Z,71.96
2017-11-01T18:59:21.220Z,72.06
2017-11-01T19:00:30.139Z,71.96
2017-11-01T19:01:39.542Z,71.77
2017-11-01T19:02:48.389Z,71.77
2017-11-01T19:03:57.239Z,71.87
2017-11-01T19:05:06.086Z,71.87
2017-11-01T19:06:14.936Z,71.77
2017-11-01T19:07:23.936Z,72.06
2017-11-01T19:08:33.132Z,71.77
2017-11-01T19:09:42.037Z,71.77
2017-11-01T19:10:51.232Z,71.48
2017-11-01T19:12:00.083Z,71.87
2017-11-01T19:13:09.082Z,71.77
2017-11-01T19:14:17.930Z,71.77
2017-11-01T19:15:26.781Z,71.96
2017-11-01T19:16:35.687Z,71.87
2017-11-01T19:17:44.539Z,71.87
2017-11-01T19:18:53.641Z,71.68
2017-11-01T19:20:02.742Z,71.96
2017-11-01T19:21:11.689Z,71.68
2017-11-01T19:22:20.752Z,71.87
2017-11-01T19:23:30.388Z,71.77
2017-11-01T19:24:39.687Z,71.87
2017-11-01T19:25:48.600Z,71.3
2017-11-01T19:26:57.450Z,71.68
2017-11-01T19:28:06.296Z,71.87
2017-11-01T19:29:15.147Z,71.77
2017-11-01T19:30:24.112Z,72.25
2017-11-01T19:31:32.978Z,72.16
2017-11-01T19:32:41.836Z,72.44
2017-11-01T19:33:50.739Z,72.44
2017-11-01T19:34:59.800Z,72.34
2017-11-01T19:36:08.986Z,72.82
2017-11-01T19:37:17.834Z,72.34
2017-11-01T19:38:26.682Z,72.82
2017-11-01T19:39:35.896Z,72.44
2017-11-01T19:40:44.849Z,71.87
2017-11-01T19:41:54.106Z,72.16
2017-11-01T19:43:02.957Z,72.44
2017-11-01T19:44:11.820Z,72.25
2017-11-01T19:45:20.718Z,72.34
2017-11-01T19:46:29.570Z,72.16
2017-11-01T19:47:38.886Z,72.16
2017-11-01T19:48:48.251Z,72.44
2017-11-01T19:49:57.258Z,72.16
2017-11-01T19:51:06.317Z,72.44
2017-11-01T19:52:15.260Z,72.25
2017-11-01T19:53:24.510Z,72.25
2017-11-01T19:54:33.378Z,71.77
2017-11-01T19:55:42.297Z,71.87
2017-11-01T19:56:51.228Z,71.77
2017-11-01T19:58:00.233Z,72.06
2017-11-01T19:59:09.385Z,71.87
2017-11-01T20:00:18.304Z,71.87
2017-11-01T20:01:27.237Z,71.87
2017-11-01T20:02:36.120Z,71.87
2017-11-01T20:03:45.008Z,71.96
2017-11-01T20:04:53.870Z,72.28
2017-11-01T20:06:03.057Z,71.77
2017-11-01T20:07:11.914Z,72.34
2017-11-01T20:08:21.458Z,71.96
2017-11-01T20:09:30.473Z,71.68
2017-11-01T20:10:39.474Z,71.87
2017-11-01T20:11:48.386Z,71.58
2017-11-01T20:12:57.708Z,72.34
2017-11-01T20:14:06.603Z,71.77
2017-11-01T20:15:15.453Z,72.25
2017-11-01T20:16:24.672Z,71.68
2017-11-01T20:17:33.527Z,71.48
2017-11-01T20:18:42.433Z,71.87
2017-11-01T20:19:51.286Z,72.25
2017-11-01T20:21:00.143Z,72.25
2017-11-01T20:22:09.021Z,71.96
2017-11-01T20:23:17.877Z,72.16
2017-11-01T20:24:26.733Z,72.16
2017-11-01T20:25:35.935Z,72.06
2017-11-01T20:26:44.786Z,71.87
2017-11-01T20:27:54.011Z,71.96
2017-11-01T20:29:03.017Z,71.96
2017-11-01T20:30:11.877Z,72.16
2017-11-01T20:31:20.735Z,71.77
2017-11-01T20:32:29.978Z,71.96
2017-11-01T20:33:39.347Z,72.06
2017-11-01T20:34:48.369Z,71.68
2017-11-01T20:35:57.277Z,71.77
2017-11-01T20:37:06.389Z,72.06
2017-11-01T20:38:15.299Z,71.87
2017-11-01T20:39:24.296Z,72.16
2017-11-01T20:40:33.145Z,71.96
2017-11-01T20:41:42.015Z,71.96
2017-11-01T20:42:51.148Z,71.3
2017-11-01T20:44:00.258Z,71.87
2017-11-01T20:45:09.215Z,71.87
2017-11-01T20:46:18.195Z,71.77
2017-11-01T20:47:27.270Z,72.06
2017-11-01T20:48:36.222Z,71.77
2017-11-01T20:49:45.739Z,71.58
2017-11-01T20:50:55.090Z,72.06
2017-11-01T20:52:03.949Z,71.58
2017-11-01T20:53:13.194Z,72.16
2017-11-01T20:54:22.940Z,71.77
2017-11-01T20:55:31.790Z,71.87
2017-11-01T20:56:40.805Z,71.77
2017-11-01T20:57:50.173Z,71.87
2017-11-01T20:58:59.089Z,71.96
2017-11-01T21:00:08.118Z,72.25
2017-11-01T21:01:16.972Z,71.87
2017-11-01T21:02:25.985Z,71.77
2017-11-01T21:03:35.205Z,71.77
2017-11-01T21:04:44.054Z,71.68
2017-11-01T21:05:53.107Z,71.87
2017-11-01T21:07:02.023Z,72.06
2017-11-01T21:08:11.326Z,71.87
2017-11-01T21:09:20.657Z,71.83
2017-11-01T21:10:29.505Z,71.96
2017-11-01T21:11:38.363Z,71.87
2017-11-01T21:12:47.210Z,71.96
2017-11-01T21:13:56.291Z,72.06
2017-11-01T21:15:05.154Z,71.87
2017-11-01T21:16:14.101Z,72.02
2017-11-01T21:17:23.363Z,71.93
2017-11-01T21:18:32.273Z,72.12
2017-11-01T21:19:41.332Z,71.73
2017-11-01T21:20:50.182Z,71.93
2017-11-01T21:21:59.243Z,72.02
2017-11-01T21:23:08.324Z,71.93
2017-11-01T21:24:17.214Z,71.64
2017-11-01T21:25:26.709Z,71.93
2017-11-01T21:26:36.240Z,72.02
2017-11-01T21:27:45.266Z,72.21
2017-11-01T21:28:54.123Z,72.12
2017-11-01T21:30:02.973Z,71.55
2017-11-01T21:31:12.123Z,72.02
2017-11-01T21:32:21.036Z,72.02
2017-11-01T21:33:29.886Z,71.73
2017-11-01T21:34:39.081Z,72.02
2017-11-01T21:35:47.931Z,71.64
2017-11-01T21:36:57.271Z,71.83
2017-11-01T21:38:06.134Z,71.93
2017-11-01T21:39:15.106Z,71.73
2017-11-01T21:40:23.956Z,71.64
2017-11-01T21:41:33.509Z,72.02
2017-11-01T21:42:42.642Z,71.73
2017-11-01T21:43:51.490Z,71.64
2017-11-01T21:45:00.339Z,72.02
2017-11-01T21:46:09.186Z,71.73
2017-11-01T21:47:18.040Z,71.55
2017-11-01T21:48:27.039Z,71.64
2017-11-01T21:49:35.948Z,72.12
2017-11-01T21:50:44.886Z,71.83
2017-11-01T21:51:53.735Z,71.83
2017-11-01T21:53:02.937Z,71.83
2017-11-01T21:54:11.840Z,71.83
2017-11-01T21:55:20.690Z,71.64
2017-11-01T21:56:29.535Z,71.83
2017-11-01T21:57:38.437Z,71.73
2017-11-01T21:58:47.348Z,71.73
2017-11-01T21:59:56.356Z,71.73
2017-11-01T22:01:05.206Z,71.93
2017-11-01T22:02:14.398Z,71.64
2017-11-01T22:03:23.307Z,71.83
2017-11-01T22:04:32.156Z,71.83
2017-11-01T22:05:41.172Z,71.73
2017-11-01T22:06:50.370Z,72.02
2017-11-01T22:07:59.225Z,71.83
2017-11-01T22:09:08.424Z,71.73
2017-11-01T22:10:17.261Z,71.64
2017-11-01T22:11:26.159Z,71.64
2017-11-01T22:12:35.008Z,71.83
2017-11-01T22:13:43.874Z,71.73
2017-11-01T22:14:52.707Z,72.21
2017-11-01T22:16:01.558Z,71.83
2017-11-01T22:17:10.805Z,71.93
2017-11-01T22:18:19.655Z,71.55
2017-11-01T22:19:28.507Z,71.83
2017-11-01T22:20:37.698Z,71.83
2017-11-01T22:21:46.551Z,71.73
2017-11-01T22:22:55.687Z,71.93
2017-11-01T22:24:04.534Z,72.21
2017-11-01T22:25:13.386Z,71.73
2017-11-01T22:26:22.293Z,71.73
2017-11-01T22:27:31.144Z,71.83
2017-11-01T22:28:40.445Z,72.31
2017-11-01T22:29:49.291Z,71.73
2017-11-01T22:30:58.139Z,71.8
2017-11-01T22:32:06.987Z,71.93
2017-11-01T22:33:15.847Z,72.31
2017-11-01T22:34:24.888Z,72.21
2017-11-01T22:35:33.731Z,71.83
2017-11-01T22:36:42.582Z,72.31
2017-11-01T22:37:51.433Z,71.7
2017-11-01T22:39:00.276Z,71.89
2017-11-01T22:40:09.339Z,72.21
2017-11-01T22:41:18.172Z,72.27
2017-11-01T22:42:27.021Z,71.7
2017-11-01T22:43:35.868Z,71.7
2017-11-01T22:44:44.716Z,72.17
2017-11-01T22:45:53.813Z,72.37
2017-11-01T22:47:02.669Z,72.27
2017-11-01T22:48:11.512Z,71.89
2017-11-01T22:49:20.358Z,72.08
2017-11-01T22:50:29.206Z,71.7
2017-11-01T22:51:38.204Z,72.12
2017-11-01T22:52:47.055Z,72.17
2017-11-01T22:53:55.903Z,71.7
2017-11-01T22:55:04.751Z,71.8
2017-11-01T22:56:13.652Z,71.7
2017-11-01T22:57:22.647Z,71.89
2017-11-01T22:58:31.493Z,71.8
2017-11-01T22:59:40.338Z,72.31
2017-11-01T23:00:49.189Z,71.8
2017-11-01T23:01:58.034Z,71.89
2017-11-01T23:03:07.031Z,72.17
2017-11-01T23:04:15.878Z,71.89
2017-11-01T23:05:24.722Z,71.61
2017-11-01T23:06:33.571Z,72.17
2017-11-01T23:07:42.419Z,72.37
2017-11-01T23:08:51.466Z,72.27
2017-11-01T23:10:00.371Z,71.98
2017-11-01T23:11:09.221Z,71.8
2017-11-01T23:12:18.067Z,72.27
2017-11-01T23:13:26.915Z,72.27
2017-11-01T23:14:35.759Z,72.27
2017-11-01T23:15:44.608Z,72.17
2017-11-01T23:16:53.454Z,72.08
2017-11-01T23:18:02.647Z,72.37
2017-11-01T23:19:11.494Z,72.08
2017-11-01T23:20:20.492Z,72.37
2017-11-01T23:21:29.344Z,72.37
2017-11-01T23:22:38.191Z,72.27
2017-11-01T23:23:47.040Z,72.08
2017-11-01T23:24:55.888Z,72.56
2017-11-01T23:26:04.736Z,72.27
2017-11-01T23:27:13.583Z,72.08
2017-11-01T23:28:22.436Z,72.75
2017-11-01T23:29:31.276Z,72.37
2017-11-01T23:30:40.126Z,72.08
2017-11-01T23:31:49.073Z,72.27
2017-11-01T23:32:57.920Z,71.98
2017-11-01T23:34:06.768Z,72.37
2017-11-01T23:35:15.613Z,72.27
2017-11-01T23:36:24.458Z,72.17
2017-11-01T23:37:33.307Z,72.17
2017-11-01T23:38:42.156Z,72.17
2017-11-01T23:39:51.001Z,72.08
2017-11-01T23:41:00.559Z,72.56
2017-11-01T23:42:09.386Z,72.27
2017-11-01T23:43:18.633Z,72.17
2017-11-01T23:44:27.486Z,72.56
2017-11-01T23:45:36.334Z,72.27
2017-11-01T23:46:45.527Z,72.56
2017-11-01T23:47:54.718Z,71.98
2017-11-01T23:49:03.715Z,72.27
2017-11-01T23:50:12.564Z,72.27
2017-11-01T23:51:21.761Z,71.98
2017-11-01T23:52:30.598Z,72.17
2017-11-01T23:53:39.443Z,72.46
2017-11-01T23:54:48.393Z,72.17
2017-11-01T23:55:57.242Z,72.37
2017-11-01T23:57:06.094Z,72.37
2017-11-01T23:58:14.938Z,72.46
2017-11-01T23:59:23.788Z,72.94
